createdAt,value
2022-11-14T00:00:29.250Z,101630.57
2022-11-14T00:03:16.698Z,101634.93
2022-11-14T00:06:08.234Z,101632.88
2022-11-14T00:08:55.071Z,101627.27
2022-11-14T00:11:42.371Z,101625.23
2022-11-14T00:14:29.425Z,101623.70
2022-11-14T00:17:17.007Z,101618.65
2022-11-14T00:20:06.298Z,101619.08
2022-11-14T00:22:53.308Z,101617.84
2022-11-14T00:25:40.263Z,101621.14
2022-11-14T00:28:27.621Z,101623.02
2022-11-14T00:31:14.921Z,101621.56
2022-11-14T00:34:01.869Z,101617.88
2022-11-14T00:36:48.710Z,101611.86
2022-11-14T00:39:35.563Z,101609.84
2022-11-14T00:42:22.662Z,101602.89
2022-11-14T00:45:10.052Z,101604.30
2022-11-14T00:47:57.337Z,101605.11
2022-11-14T00:50:44.526Z,101599.52
2022-11-14T00:53:31.618Z,101599.36
2022-11-14T00:56:18.885Z,101602.17
2022-11-14T00:59:06.159Z,101600.70
2022-11-14T01:01:57.717Z,101596.57
2022-11-14T01:04:45.551Z,101598.02
2022-11-14T01:07:32.520Z,101599.78
2022-11-14T01:10:19.641Z,101598.08
2022-11-14T01:13:06.477Z,101600.17
2022-11-14T01:15:55.014Z,101597.55
2022-11-14T01:18:41.997Z,101590.94
2022-11-14T01:21:28.825Z,101586.34
2022-11-14T01:24:15.939Z,101583.70
2022-11-14T01:27:03.230Z,101580.73
2022-11-14T01:29:50.909Z,101577.96
2022-11-14T01:32:38.311Z,101576.84
2022-11-14T01:35:25.354Z,101574.77
2022-11-14T01:38:14.888Z,101574.27
2022-11-14T01:41:02.303Z,101573.47
2022-11-14T01:43:50.036Z,101572.52
2022-11-14T01:46:40.936Z,101567.89
2022-11-14T01:49:43.900Z,101565.81
2022-11-14T01:52:40.723Z,101562.16
2022-11-14T01:55:27.463Z,101554.46
2022-11-14T01:58:16.690Z,101555.54
2022-11-14T02:01:03.780Z,101552.42
2022-11-14T02:03:53.185Z,101548.44
2022-11-14T02:06:40.744Z,101544.44
2022-11-14T02:09:31.374Z,101539.05
2022-11-14T02:12:19.731Z,101528.67
2022-11-14T02:15:07.162Z,101529.92
2022-11-14T02:17:54.268Z,101527.23
2022-11-14T02:20:43.486Z,101520.69
2022-11-14T02:23:32.755Z,101518.41
2022-11-14T02:26:21.560Z,101513.01
2022-11-14T02:29:11.501Z,101512.11
2022-11-14T02:31:58.549Z,101507.98
2022-11-14T02:34:45.214Z,101509.42
2022-11-14T02:37:32.067Z,101504.73
2022-11-14T02:40:18.970Z,101501.08
2022-11-14T02:43:06.097Z,101503.52
2022-11-14T02:45:53.270Z,101506.83
2022-11-14T02:48:40.141Z,101495.20
2022-11-14T02:51:26.964Z,101493.49
2022-11-14T02:54:13.714Z,101497.88
2022-11-14T02:57:00.897Z,101495.30
2022-11-14T02:59:47.588Z,101490.86
2022-11-14T03:02:34.955Z,101494.17
2022-11-14T03:05:22.119Z,101497.52
2022-11-14T03:08:08.771Z,101494.63
2022-11-14T03:10:55.484Z,101489.26
2022-11-14T03:13:42.563Z,101492.69
2022-11-14T03:16:29.342Z,101496.65
2022-11-14T03:19:16.200Z,101491.22
2022-11-14T03:22:03.647Z,101491.84
2022-11-14T03:24:50.494Z,101490.95
2022-11-14T03:27:37.632Z,101486.48
2022-11-14T03:30:24.709Z,101486.88
2022-11-14T03:33:11.816Z,101482.94
2022-11-14T03:35:58.865Z,101476.54
2022-11-14T03:38:45.693Z,101475.33
2022-11-14T03:41:32.701Z,101472.63
2022-11-14T03:44:19.577Z,101474.59
2022-11-14T03:47:06.803Z,101472.85
2022-11-14T03:49:53.879Z,101474.94
2022-11-14T03:52:41.243Z,101471.95
2022-11-14T03:55:28.323Z,101469.33
2022-11-14T03:58:15.216Z,101469.14
2022-11-14T04:01:03.991Z,101470.02
2022-11-14T04:03:51.293Z,101464.13
2022-11-14T04:06:38.768Z,101459.43
2022-11-14T04:09:25.873Z,101457.55
2022-11-14T04:12:15.909Z,101457.23
2022-11-14T04:15:03.310Z,101453.59
2022-11-14T04:17:51.416Z,101453.90
2022-11-14T04:20:38.472Z,101451.66
2022-11-14T04:23:25.695Z,101448.92
2022-11-14T04:26:12.774Z,101444.59
2022-11-14T04:29:00.007Z,101439.23
2022-11-14T04:31:46.700Z,101437.42
2022-11-14T04:34:34.283Z,101436.61
2022-11-14T04:37:20.820Z,101431.05
2022-11-14T04:40:09.023Z,101426.16
2022-11-14T04:42:56.132Z,101427.85
2022-11-14T04:45:43.505Z,101424.88
2022-11-14T04:48:30.908Z,101420.02
2022-11-14T04:51:19.007Z,101419.92
2022-11-14T04:54:05.973Z,101416.52
2022-11-14T04:56:53.349Z,101418.41
2022-11-14T04:59:40.054Z,101418.77
2022-11-14T05:02:27.309Z,101420.79
2022-11-14T05:05:14.111Z,101415.67
2022-11-14T05:08:01.536Z,101414.30
2022-11-14T05:10:48.774Z,101413.27
2022-11-14T05:13:35.823Z,101415.58
2022-11-14T05:16:22.727Z,101414.70
